Time;durP1;ratioP1;P1;durP2;ratioP2;P2;SDS_P1;SDS_P2;PMS_P1;PMS_P2;Temp;Humidity;BMP_temperature;BMP_pressure;BME280_temperature;BME280_humidity;BME280_pressure;Samples;Min_cycle;Max_cycle;Signal;HPM_P1;HPM_P2
2022/08/22 00:00:11;;;;;;;12.73;3.97;;;;;;;14.67;100.00;100868.06;5050724;28;20722;-88
2022/08/22 00:02:48;;;;;;;12.25;4.43;;;;;;;15.04;100.00;100911.75;5052457;28;20461;-88
2022/08/22 00:05:47;;;;;;;15.68;5.05;;;;;;;14.85;100.00;100898.69;5039830;28;20104;-88
2022/08/22 00:08:51;;;;;;;13.15;4.03;;;;;;;14.59;100.00;100873.75;5040897;28;20410;-88
2022/08/22 00:11:28;;;;;;;;;;;;;;;15.01;100.00;100906.66;5043255;28;20061;-88
2022/08/22 00:14:23;;;;;;;10.30;2.95;;;;;;;14.85;100.00;100905.75;5038952;28;19920;-88
2022/08/22 00:17:01;;;;;;;8.60;2.22;;;;;;;14.44;100.00;100909.59;5051666;28;20142;-87
2022/08/22 00:19:46;;;;;;;7.93;2.15;;;;;;;14.37;100.00;100902.91;5037762;28;20046;-88
2022/08/22 00:22:24;;;;;;;9.20;2.50;;;;;;;14.01;100.00;100848.56;5036099;28;20056;-88
2022/08/22 00:25:13;;;;;;;8.30;2.40;;;;;;;14.29;100.00;100876.97;5051358;28;20053;-88
2022/08/22 00:28:29;;;;;;;6.68;1.95;;;;;;;14.61;100.00;100904.34;5049875;28;20044;-88
2022/08/22 00:31:14;;;;;;;8.40;2.40;;;;;;;14.34;100.00;100879.38;5035652;28;20472;-88
2022/08/22 00:33:50;;;;;;;7.55;2.28;;;;;;;14.33;100.00;100914.56;5037848;28;20049;-88
2022/08/22 00:36:27;;;;;;;7.25;1.92;;;;;;;14.00;100.00;100889.81;5063342;28;20049;-88
2022/08/22 00:39:12;;;;;;;5.72;1.85;;;;;;;13.74;100.00;100861.28;5043085;28;20558;-88
2022/08/22 00:42:00;;;;;;;7.32;2.17;;;;;;;13.88;100.00;100879.88;5031944;28;20049;-88
2022/08/22 00:44:39;;;;;;;7.40;2.25;;;;;;;14.38;100.00;100916.03;5034381;28;20055;-88
2022/08/22 00:47:15;;;;;;;6.78;2.30;;;;;;;14.51;100.00;100913.59;5041662;28;20380;-88
2022/08/22 00:50:02;;;;;;;7.10;2.47;;;;;;;14.71;100.00;100923.13;5032289;28;20067;-88
2022/08/22 00:52:38;;;;;;;12.52;2.20;;;;;;;14.54;100.00;100917.88;5056534;28;20049;-88
2022/08/22 00:55:08;;;;;;;9.15;2.63;;;;;;;14.25;100.00;100925.44;5064191;28;20053;-88
2022/08/22 00:58:13;;;;;;;5.50;1.83;;;;;;;14.19;100.00;100923.13;5043856;28;20048;-88
2022/08/22 01:00:51;;;;;;;7.50;2.08;;;;;;;14.24;100.00;100905.34;5033050;28;20049;-88
2022/08/22 01:03:46;;;;;;;10.50;2.47;;;;;;;14.43;100.00;100903.47;5051429;28;20049;-88
2022/08/22 01:06:31;;;;;;;7.47;2.20;;;;;;;14.27;100.00;100902.56;5050739;28;20051;-88
2022/08/22 01:09:01;;;;;;;8.35;2.00;;;;;;;13.90;100.00;100925.44;5046450;28;20060;-88
2022/08/22 01:11:59;;;;;;;6.38;1.83;;;;;;;13.72;100.00;100910.50;5045109;28;20049;-88
2022/08/22 01:14:26;;;;;;;6.68;2.10;;;;;;;14.05;100.00;100918.56;5050749;28;20471;-88
2022/08/22 01:17:21;;;;;;;6.35;1.88;;;;;;;14.19;100.00;100920.50;5047468;28;20053;-88
2022/08/22 01:20:19;;;;;;;6.18;1.80;;;;;;;14.03;100.00;100926.53;5030856;28;20403;-88
2022/08/22 01:23:04;;;;;;;5.25;1.77;;;;;;;14.18;100.00;100917.03;5031395;28;20065;-88
2022/08/22 01:26:12;;;;;;;5.20;1.70;;;;;;;14.10;100.00;100913.91;5046223;28;20136;-87
2022/08/22 01:29:00;;;;;;;5.65;1.73;;;;;;;13.85;100.00;100915.09;5039114;28;20479;-87
2022/08/22 01:32:03;;;;;;;7.75;2.00;;;;;;;13.96;100.00;100913.75;5051591;28;20049;-87
2022/08/22 01:34:39;;;;;;;6.40;1.77;;;;;;;14.16;100.00;100915.38;5054106;28;20037;-87
2022/08/22 01:37:39;;;;;;;7.72;1.67;;;;;;;14.12;100.00;100916.47;5043873;28;20061;-87
2022/08/22 01:40:48;;;;;;;5.80;1.67;;;;;;;13.94;100.00;100920.88;5043098;28;20059;-87
2022/08/22 01:43:47;;;;;;;5.43;1.40;;;;;;;13.70;100.00;100933.41;5041403;28;20055;-87
2022/08/22 01:46:31;;;;;;;6.65;2.20;;;;;;;13.65;100.00;100931.00;5042902;28;20407;-87
2022/08/22 01:49:13;;;;;;;9.45;1.83;;;;;;;13.61;100.00;100924.19;5054134;28;20064;-87
2022/08/22 01:51:55;;;;;;;14.05;2.40;;;;;;;13.54;100.00;100922.75;5055725;28;20044;-87
2022/08/22 01:54:41;;;;;;;4.63;1.70;;;;;;;13.74;100.00;100920.06;5054887;28;20060;-88
2022/08/22 01:57:10;;;;;;;8.48;1.85;;;;;;;13.80;100.00;100911.84;5055538;28;20063;-87
2022/08/22 01:59:40;;;;;;;7.55;2.10;;;;;;;13.63;100.00;100927.59;5053813;28;20045;-88
2022/08/22 02:02:11;;;;;;;6.10;1.52;;;;;;;13.83;100.00;100918.75;5054153;28;20060;-88
2022/08/22 02:04:43;;;;;;;6.25;1.85;;;;;;;13.85;100.00;100914.28;5052137;28;20049;-88
2022/08/22 02:07:30;;;;;;;5.83;1.73;;;;;;;13.63;100.00;100919.69;5053337;28;20048;-88
2022/08/22 02:10:03;;;;;;;6.13;1.90;;;;;;;13.67;100.00;100911.59;5053897;28;20131;-88
2022/08/22 02:12:41;;;;;;;6.82;1.77;;;;;;;13.75;100.00;100913.00;5054812;28;20403;-88
2022/08/22 02:15:40;;;;;;;7.00;1.67;;;;;;;13.77;100.00;100900.63;5054367;28;20055;-88
2022/08/22 02:18:23;;;;;;;5.45;1.50;;;;;;;13.41;100.00;100878.63;5049703;28;20050;-87
2022/08/22 02:21:04;;;;;;;6.82;1.92;;;;;;;13.45;100.00;100901.22;5034648;28;20052;-87
2022/08/22 02:23:55;;;;;;;5.60;1.85;;;;;;;13.05;100.00;100866.25;5043259;28;20049;-87
2022/08/22 02:26:22;;;;;;;4.75;1.60;;;;;;;13.37;100.00;100903.38;5041175;28;20045;-87
2022/08/22 02:28:55;;;;;;;6.03;1.98;;;;;;;13.39;100.00;100906.78;5045424;28;20049;-87
2022/08/22 02:31:35;;;;;;;5.65;1.75;;;;;;;13.27;100.00;100902.91;5034940;28;20046;-88
2022/08/22 02:34:19;;;;;;;4.20;1.60;;;;;;;13.21;100.00;100847.97;5044132;28;20057;-88
2022/08/22 02:37:01;;;;;;;6.90;1.90;;;;;;;13.26;100.00;100859.13;5054309;28;20067;-88
2022/08/22 02:39:33;;;;;;;5.77;2.10;;;;;;;13.24;100.00;100881.16;5053063;28;20052;-88
2022/08/22 02:42:00;;;;;;;5.72;1.90;;;;;;;13.67;100.00;100905.50;5052977;28;20286;-87
2022/08/22 02:44:39;;;;;;;5.00;1.70;;;;;;;13.87;100.00;100901.88;5052649;28;20060;-88
2022/08/22 02:47:12;;;;;;;6.90;1.92;;;;;;;13.84;100.00;100909.91;5053520;28;20048;-87
2022/08/22 02:49:54;;;;;;;6.72;1.80;;;;;;;13.46;100.00;100884.53;5052748;28;20049;-87
2022/08/22 02:52:32;;;;;;;6.35;2.33;;;;;;;13.64;100.00;100882.78;5042570;28;20056;-87
2022/08/22 02:55:12;;;;;;;10.05;2.00;;;;;;;13.31;100.00;100866.81;5053972;28;20053;-88
2022/08/22 02:57:46;;;;;;;6.95;1.75;;;;;;;13.24;100.00;100865.38;5054068;28;20051;-88
2022/08/22 03:00:27;;;;;;;7.07;1.60;;;;;;;13.44;100.00;100903.94;5054024;28;20051;-89
2022/08/22 03:02:58;;;;;;;6.43;1.73;;;;;;;13.39;100.00;100901.50;5053990;28;20098;-88
2022/08/22 03:05:37;;;;;;;7.57;2.03;;;;;;;13.14;100.00;100893.00;5053783;28;20082;-89
2022/08/22 03:08:11;;;;;;;4.80;1.60;;;;;;;13.39;100.00;100888.38;5050095;28;20495;-89
2022/08/22 03:10:46;;;;;;;6.50;1.63;;;;;;;13.03;100.00;100868.09;5050439;28;20048;-89
2022/08/22 03:13:22;;;;;;;10.43;2.08;;;;;;;13.44;100.00;100891.63;5052878;28;20049;-89
2022/08/22 03:16:05;;;;;;;7.72;1.70;;;;;;;12.91;100.00;100845.84;5053050;28;20379;-89
2022/08/22 03:18:58;;;;;;;12.32;2.50;;;;;;;12.99;100.00;100857.78;5053222;28;20049;-87
2022/08/22 03:21:46;;;;;;;6.13;1.90;;;;;;;13.34;100.00;100882.47;5052297;28;20051;-88
2022/08/22 03:24:31;;;;;;;8.18;1.83;;;;;;;13.23;100.00;100859.28;5053655;28;20048;-88
2022/08/22 03:27:22;;;;;;;7.88;2.00;;;;;;;13.47;100.00;100877.47;5043018;28;20065;-88
2022/08/22 03:30:33;;;;;;;9.25;2.22;;;;;;;13.31;100.00;100879.97;5031794;28;20057;-88
2022/08/22 03:33:15;;;;;;;6.68;1.52;;;;;;;13.44;100.00;100867.97;5031701;28;20052;-88
2022/08/22 03:35:44;;;;;;;6.82;1.83;;;;;;;13.40;100.00;100876.06;5051793;28;20063;-88
2022/08/22 03:38:21;;;;;;;7.18;2.05;;;;;;;13.18;100.00;100871.78;5046699;28;20056;-88
2022/08/22 03:41:09;;;;;;;8.02;2.00;;;;;;;13.05;100.00;100866.25;5044361;28;20059;-88
2022/08/22 03:44:03;;;;;;;5.43;1.70;;;;;;;12.82;100.00;100864.66;5053403;28;20396;-88
2022/08/22 03:47:02;;;;;;;6.20;1.90;;;;;;;13.00;100.00;100859.50;5051399;28;20071;-88
2022/08/22 03:49:41;;;;;;;5.47;1.73;;;;;;;13.08;100.00;100859.97;5032436;28;20498;-88
2022/08/22 03:52:23;;;;;;;5.68;1.90;;;;;;;12.86;100.00;100871.47;5039890;28;20077;-88
2022/08/22 03:55:08;;;;;;;6.30;1.92;;;;;;;12.84;100.00;100859.34;5052193;28;20059;-88
2022/08/22 03:57:44;;;;;;;6.45;2.08;;;;;;;12.97;100.00;100852.59;5051945;28;20479;-88
2022/08/22 04:00:29;;;;;;;5.65;2.13;;;;;;;12.96;100.00;100839.50;5051994;28;20045;-88
2022/08/22 04:02:59;;;;;;;8.02;1.80;;;;;;;12.66;100.00;100846.09;5050159;28;20053;-88
2022/08/22 04:05:41;;;;;;;6.03;1.85;;;;;;;12.81;100.00;100847.16;5052171;28;20487;-88
2022/08/22 04:08:26;;;;;;;4.90;1.75;;;;;;;12.67;100.00;100847.78;5038519;28;20399;-88
2022/08/22 04:10:56;;;;;;;5.07;1.80;;;;;;;12.62;100.00;100843.66;5039867;28;20056;-88
2022/08/22 04:14:07;;;;;;;5.32;1.77;;;;;;;12.70;100.00;100845.03;5052637;28;20480;-87
2022/08/22 04:16:40;;;;;;;6.18;1.52;;;;;;;12.57;100.00;100849.13;5041836;28;20049;-88
2022/08/22 04:19:29;;;;;;;5.00;1.75;;;;;;;12.68;100.00;100851.28;5050631;28;20497;-88
2022/08/22 04:22:35;;;;;;;5.82;1.80;;;;;;;12.54;100.00;100857.16;5002905;28;20053;-88
2022/08/22 04:25:22;;;;;;;6.97;1.65;;;;;;;12.52;100.00;100859.84;4967193;28;20047;-89
2022/08/22 04:28:01;;;;;;;7.47;1.58;;;;;;;12.55;100.00;100864.09;5047403;28;20053;-88
2022/08/22 04:30:41;;;;;;;4.28;1.55;;;;;;;12.48;100.00;100841.63;5051792;28;20371;-88
2022/08/22 04:33:18;;;;;;;4.72;1.70;;;;;;;12.70;100.00;100845.03;5037272;28;20118;-88
2022/08/22 04:35:59;;;;;;;5.57;1.60;;;;;;;12.90;100.00;100861.66;5051403;28;20055;-88
2022/08/22 04:38:43;;;;;;;8.48;1.88;;;;;;;12.73;100.00;100834.41;5044176;28;20502;-88
2022/08/22 04:41:19;;;;;;;7.05;2.00;;;;;;;12.93;100.00;100835.25;5048061;28;20060;-88
2022/08/22 04:43:50;;;;;;;6.15;1.70;;;;;;;13.24;100.00;100871.50;5051226;28;20048;-88
2022/08/22 04:46:38;;;;;;;4.95;1.60;;;;;;;13.15;100.00;100873.69;5050800;28;20502;-88
2022/08/22 04:49:31;;;;;;;5.15;1.75;;;;;;;13.23;100.00;100872.41;5032280;28;20051;-88
2022/08/22 04:52:27;;;;;;;5.32;1.67;;;;;;;13.02;100.00;100874.25;5031972;28;20049;-88
2022/08/22 04:55:20;;;;;;;5.40;1.67;;;;;;;12.99;100.00;100863.88;5048001;28;20106;-88
2022/08/22 04:58:00;;;;;;;5.50;2.13;;;;;;;13.16;100.00;100860.47;5050433;28;20495;-88
2022/08/22 05:00:53;;;;;;;4.95;1.48;;;;;;;13.39;100.00;100856.81;5038285;28;20506;-88
2022/08/22 05:03:24;;;;;;;6.60;1.75;;;;;;;13.32;100.00;100858.03;5050656;28;20053;-88
2022/08/22 05:05:54;;;;;;;6.72;1.70;;;;;;;13.26;100.00;100861.78;5050801;28;20045;-88
2022/08/22 05:08:26;;;;;;;6.55;1.73;;;;;;;12.89;100.00;100859.94;5047082;28;20062;-88
2022/08/22 05:10:53;;;;;;;4.38;1.52;;;;;;;12.93;100.00;100864.16;5054156;28;20049;-88
2022/08/22 05:13:38;;;;;;;7.53;1.98;;;;;;;13.18;100.00;100863.88;5055264;28;20052;-88
2022/08/22 05:16:12;;;;;;;8.13;2.47;;;;;;;12.83;100.00;100855.00;5053844;28;20531;-88
2022/08/22 05:18:48;;;;;;;4.72;1.60;;;;;;;12.57;100.00;100857.03;5054352;28;20053;-88
2022/08/22 05:21:19;;;;;;;7.72;2.10;;;;;;;12.43;100.00;100855.00;5054816;28;20611;-88
2022/08/22 05:24:10;;;;;;;7.18;1.75;;;;;;;12.35;100.00;100865.81;5054928;28;20044;-88
2022/08/22 05:26:41;;;;;;;4.95;1.67;;;;;;;12.42;100.00;100858.53;5058916;28;20048;-88
2022/08/22 05:29:10;;;;;;;5.97;1.60;;;;;;;12.53;100.00;100847.53;5054625;28;20049;-88
2022/08/22 05:31:47;;;;;;;8.13;1.70;;;;;;;12.89;100.00;100831.91;5035132;28;20050;-88
2022/08/22 05:34:23;;;;;;;7.07;2.05;;;;;;;12.75;100.00;100836.09;5048508;28;20049;-88
2022/08/22 05:37:01;;;;;;;7.95;1.65;;;;;;;12.59;100.00;100849.91;5054716;28;20051;-88
2022/08/22 05:39:29;;;;;;;6.68;1.85;;;;;;;12.43;100.00;100841.00;5053911;28;20049;-87
2022/08/22 05:42:00;;;;;;;6.03;1.92;;;;;;;12.25;100.00;100847.88;5054731;28;20052;-88
2022/08/22 05:44:36;;;;;;;7.60;1.70;;;;;;;12.22;100.00;100842.78;5049298;28;20049;-88
2022/08/22 05:47:28;;;;;;;5.78;1.80;;;;;;;12.51;100.00;100852.88;5042361;28;20088;-88
2022/08/22 05:50:14;;;;;;;5.50;1.60;;;;;;;12.73;100.00;100849.31;5046825;28;20045;-88
2022/08/22 05:52:41;;;;;;;5.00;1.60;;;;;;;12.97;100.00;100843.84;5055611;28;20410;-88
2022/08/22 05:55:21;;;;;;;5.45;1.52;;;;;;;12.67;100.00;100837.28;5052766;28;20056;-88
2022/08/22 05:58:04;;;;;;;5.72;1.58;;;;;;;12.54;100.00;100850.09;5042125;28;20061;-87
2022/08/22 06:00:36;;;;;;;;;;;;;;;12.47;100.00;100851.31;5052626;28;20050;-88
2022/08/22 06:03:19;;;;;;;9.75;2.20;;;;;;;12.23;100.00;100840.06;5057998;28;20366;-88
2022/08/22 06:05:52;;;;;;;6.55;1.70;;;;;;;12.77;100.00;100850.88;5058335;28;20407;-88
2022/08/22 06:08:40;;;;;;;5.70;1.50;;;;;;;12.82;100.00;100793.72;5057399;28;20063;-88
2022/08/22 06:11:17;;;;;;;5.75;1.63;;;;;;;13.01;100.00;100805.97;5056310;28;20045;-88
2022/08/22 06:13:52;;;;;;;7.80;1.75;;;;;;;13.28;100.00;100830.16;5056044;28;20055;-88
2022/08/22 06:16:30;;;;;;;5.45;1.75;;;;;;;13.41;100.00;100833.91;5054768;28;20051;-87
2022/08/22 06:18:58;;;;;;;9.40;2.85;;;;;;;12.98;100.00;100787.72;5044369;28;20049;-87
2022/08/22 06:21:31;;;;;;;6.70;1.98;;;;;;;13.29;100.00;100851.09;5056435;28;20048;-87
2022/08/22 06:24:08;;;;;;;6.20;1.70;;;;;;;13.20;100.00;100790.22;5057280;28;20079;-89
2022/08/22 06:26:38;;;;;;;6.63;1.80;;;;;;;13.77;100.00;100824.31;5055453;28;20049;-88
2022/08/22 06:29:07;;;;;;;5.28;1.73;;;;;;;13.63;100.00;100810.06;5044666;28;20056;-87
2022/08/22 06:31:45;;;;;;;5.50;1.67;;;;;;;13.87;100.00;100825.56;5038913;28;20124;-88
2022/08/22 06:34:16;;;;;;;7.93;1.85;;;;;;;14.16;100.00;100857.47;5039289;28;20060;-89
2022/08/22 06:36:48;;;;;;;3.83;1.30;;;;;;;13.93;100.00;100787.53;5039842;28;20050;-89
2022/08/22 06:39:28;;;;;;;5.68;1.40;;;;;;;14.43;100.00;100857.84;5038313;28;20049;-89
2022/08/22 06:42:18;;;;;;;7.10;1.75;;;;;;;14.43;100.00;100856.06;5038406;28;20104;-89
2022/08/22 06:44:53;;;;;;;5.88;1.73;;;;;;;14.32;100.00;100813.59;5038007;28;20133;-88
2022/08/22 06:47:36;;;;;;;6.47;1.52;;;;;;;14.47;100.00;100833.03;5039963;28;20049;-88
2022/08/22 06:50:11;;;;;;;5.63;1.70;;;;;;;14.03;100.00;100796.69;5038607;28;20046;-88
2022/08/22 06:53:17;;;;;;;4.40;1.80;;;;;;;14.49;100.00;100832.97;5037704;28;20451;-89
2022/08/22 06:56:06;;;;;;;6.40;1.80;;;;;;;13.51;100.00;100725.63;5026023;28;20539;-89
2022/08/22 06:58:41;;;;;;;5.40;1.55;;;;;;;13.48;100.00;100789.75;5038286;28;20053;-89
2022/08/22 07:01:18;;;;;;;8.15;2.40;;;;;;;13.18;100.00;100805.22;5054325;28;20053;-89
2022/08/22 07:03:57;;;;;;;6.50;1.48;;;;;;;13.09;100.00;100746.03;5054052;28;20424;-88
2022/08/22 07:06:50;;;;;;;5.60;1.65;;;;;;;14.10;100.00;100837.56;5038283;28;20415;-88
2022/08/22 07:09:40;;;;;;;7.43;1.85;;;;;;;14.27;100.00;100841.97;5051035;28;20064;-88
2022/08/22 07:12:18;;;;;;;5.93;1.60;;;;;;;14.69;100.00;100839.84;5054794;28;20057;-89
2022/08/22 07:14:49;;;;;;;4.65;1.50;;;;;;;14.84;100.00;100793.34;5046221;28;20132;-86
2022/08/22 07:17:20;;;;;;;4.50;1.50;;;;;;;15.13;100.00;100804.94;5055301;28;20049;-87
2022/08/22 07:19:58;;;;;;;5.25;1.45;;;;;;;15.34;100.00;100794.97;5038811;28;20059;-86
2022/08/22 07:22:30;;;;;;;4.78;1.30;;;;;;;15.62;100.00;100838.28;5054066;28;20454;-87
2022/08/22 07:25:14;;;;;;;5.13;1.38;;;;;;;15.23;100.00;100752.50;5043008;28;20049;-86
2022/08/22 07:28:06;;;;;;;5.47;1.50;;;;;;;15.66;100.00;100831.88;5040927;28;20045;-86
2022/08/22 07:30:58;;;;;;;5.07;1.30;;;;;;;15.82;100.00;100823.94;5044671;28;20053;-86
2022/08/22 07:33:52;;;;;;;6.05;1.52;;;;;;;15.88;100.00;100819.16;5051071;28;20392;-87
2022/08/22 07:36:44;;;;;;;8.25;1.70;;;;;;;15.74;100.00;100801.47;5050182;28;20502;-87
2022/08/22 07:39:12;;;;;;;5.00;1.63;;;;;;;15.74;100.00;100835.81;5050705;28;20051;-87
2022/08/22 07:42:16;;;;;;;8.90;1.90;;;;;;;15.28;100.00;100837.50;5041826;28;20049;-88
2022/08/22 07:44:48;;;;;;;7.53;1.63;;;;;;;15.24;100.00;100847.38;5042721;28;20057;-90
2022/08/22 07:47:20;;;;;;;9.18;2.15;;;;;;;14.95;100.00;100830.53;5038125;28;20053;-88
2022/08/22 07:49:59;;;;;;;13.75;2.88;;;;;;;14.86;100.00;100836.31;5036449;28;20041;-88
2022/08/22 07:52:33;;;;;;;9.38;2.45;;;;;;;14.94;100.00;100831.44;5045806;28;20128;-88
2022/08/22 07:55:21;;;;;;;7.35;2.08;;;;;;;15.09;100.00;100830.63;5034168;28;20062;-87
2022/08/22 07:58:02;;;;;;;6.50;1.98;;;;;;;15.13;100.00;100821.59;5045235;28;20057;-88
2022/08/22 08:00:31;;;;;;;8.25;2.50;;;;;;;14.78;100.00;100831.44;5040219;28;20037;-87
2022/08/22 08:03:04;;;;;;;9.13;2.15;;;;;;;15.03;100.00;100838.84;5030695;28;20053;-88
2022/08/22 08:05:32;;;;;;;;;;;;;;;15.26;100.00;100836.75;5045472;28;20087;-88
2022/08/22 08:08:01;;;;;;;7.90;1.50;;;;;;;15.64;100.00;100820.56;5041550;28;20367;-88
2022/08/22 08:10:33;;;;;;;8.30;1.85;;;;;;;15.83;100.00;100822.97;5037112;28;20057;-88
2022/08/22 08:13:08;;;;;;;6.88;1.75;;;;;;;16.00;100.00;100817.56;5031001;28;20076;-87
2022/08/22 08:15:38;;;;;;;5.65;1.60;;;;;;;16.08;100.00;100822.41;5049920;28;20049;-87
2022/08/22 08:18:12;;;;;;;5.60;1.65;;;;;;;16.41;100.00;100830.09;5033249;28;20464;-88
2022/08/22 08:20:38;;;;;;;5.13;1.52;;;;;;;16.25;100.00;100818.75;5032104;28;20419;-88
2022/08/22 08:23:09;;;;;;;7.80;1.50;;;;;;;16.55;100.00;100829.25;5041035;28;20060;-88
2022/08/22 08:25:53;;;;;;;9.43;1.63;;;;;;;16.57;100.00;100823.88;5042037;28;20045;-88
2022/08/22 08:28:33;;;;;;;8.90;1.90;;;;;;;16.17;100.00;100821.88;5049619;28;20048;-88
2022/08/22 08:31:09;;;;;;;8.27;2.00;;;;;;;16.05;100.00;100836.63;5046130;28;20439;-88
2022/08/22 08:33:40;;;;;;;10.07;2.33;;;;;;;16.22;100.00;100821.56;5038163;28;20056;-88
2022/08/22 08:36:08;;;;;;;9.30;2.15;;;;;;;16.48;100.00;100834.09;5034271;28;20052;-88
2022/08/22 08:38:53;;;;;;;9.07;1.52;;;;;;;16.47;100.00;100790.09;5039815;28;20068;-88
2022/08/22 08:41:39;;;;;;;7.75;1.70;;;;;;;16.94;100.00;100822.47;5038081;28;20049;-88
2022/08/22 08:44:18;;;;;;;9.95;1.80;;;;;;;16.95;100.00;100829.47;5040362;28;20063;-88
2022/08/22 08:47:20;;;;;;;11.50;2.65;;;;;;;17.15;100.00;100825.56;5048419;28;20498;-87
2022/08/22 08:50:20;;;;;;;6.50;1.63;;;;;;;17.05;100.00;100825.31;4983151;28;20489;-87
2022/08/22 08:52:46;;;;;;;4.07;1.58;;;;;;;17.52;100.00;100817.88;5046252;28;20056;-87
2022/08/22 08:55:30;;;;;;;6.35;1.88;;;;;;;17.49;100.00;100818.06;5042031;28;20099;-86
2022/08/22 08:58:20;;;;;;;8.68;1.50;;;;;;;17.72;100.00;100808.63;5039125;28;20056;-88
2022/08/22 09:00:59;;;;;;;5.78;1.40;;;;;;;17.65;100.00;100810.84;5048400;28;20045;-88
2022/08/22 09:03:44;;;;;;;6.03;1.30;;;;;;;17.89;100.00;100804.88;5036691;28;20111;-88
2022/08/22 09:06:33;;;;;;;6.45;1.60;;;;;;;17.86;100.00;100806.91;5049594;28;20079;-90
2022/08/22 09:09:39;;;;;;;8.52;1.75;;;;;;;17.96;100.00;100803.53;5054315;28;20057;-89
2022/08/22 09:12:36;;;;;;;8.65;2.20;;;;;;;18.08;100.00;100803.63;5041539;28;20061;-89
2022/08/22 09:15:29;;;;;;;5.50;1.40;;;;;;;18.35;100.00;100809.69;5046394;28;20430;-90
2022/08/22 09:18:30;;;;;;;5.63;1.60;;;;;;;18.36;100.00;100803.44;5040482;28;20056;-85
2022/08/22 09:21:12;;;;;;;7.13;1.70;;;;;;;18.32;100.00;100798.47;5053619;28;20483;-89
2022/08/22 09:23:57;;;;;;;7.05;2.17;;;;;;;18.56;100.00;100799.41;5044595;28;20077;-85
2022/08/22 09:26:37;;;;;;;6.40;1.85;;;;;;;18.37;100.00;100781.28;5036538;28;20057;-86
2022/08/22 09:29:11;;;;;;;6.68;1.85;;;;;;;18.32;100.00;100796.66;5046106;28;20494;-87
2022/08/22 09:31:53;;;;;;;7.30;1.63;;;;;;;18.44;100.00;100781.69;5039444;28;20049;-87
2022/08/22 09:34:33;;;;;;;5.25;1.50;;;;;;;18.69;100.00;100783.47;5036745;28;20057;-89
2022/08/22 09:37:15;;;;;;;8.15;1.75;;;;;;;18.72;100.00;100795.69;5039168;28;20053;-88
2022/08/22 09:39:59;;;;;;;7.80;1.48;;;;;;;18.72;100.00;100790.38;5049617;28;20454;-89
2022/08/22 09:42:29;;;;;;;7.57;1.50;;;;;;;18.71;100.00;100778.06;5034650;28;20061;-89
2022/08/22 09:45:33;;;;;;;7.50;1.83;;;;;;;18.51;100.00;100771.53;5035043;28;20064;-89
2022/08/22 09:48:07;;;;;;;7.68;1.60;;;;;;;18.88;100.00;100772.44;5045491;28;20049;-89
2022/08/22 09:50:55;;;;;;;;;;;;;;;18.99;100.00;100771.66;5035037;28;20495;-90
2022/08/22 09:54:21;;;;;;;6.65;1.40;;;;;;;18.75;100.00;100772.44;5034232;28;19928;-89
2022/08/22 09:56:53;;;;;;;6.15;1.40;;;;;;;18.58;100.00;100751.56;5036714;28;20407;-90
2022/08/22 09:59:43;;;;;;;4.47;1.33;;;;;;;18.76;100.00;100742.28;5051437;28;20070;-90
2022/08/22 10:02:36;;;;;;;7.63;1.65;;;;;;;18.89;100.00;100736.13;5040930;28;20060;-89
2022/08/22 10:05:41;;;;;;;8.02;1.90;;;;;;;18.68;100.00;100757.06;5055148;28;20060;-89
2022/08/22 10:08:36;;;;;;;11.27;2.53;;;;;;;18.58;100.00;100755.06;5029029;28;20056;-91
2022/08/22 10:11:26;;;;;;;9.80;2.53;;;;;;;18.65;100.00;100744.88;5025482;28;20053;-91
2022/08/22 10:14:12;;;;;;;7.68;2.03;;;;;;;18.83;100.00;100749.84;5047965;28;20491;-91
2022/08/22 10:16:55;;;;;;;8.35;2.15;;;;;;;18.87;100.00;100746.84;5045338;28;20136;-91
2022/08/22 10:19:34;;;;;;;8.93;1.90;;;;;;;18.56;100.00;100742.88;5035836;28;20055;-91
2022/08/22 10:22:38;;;;;;;8.40;1.70;;;;;;;18.78;100.00;100752.78;5054034;28;20045;-91
2022/08/22 10:25:33;;;;;;;5.47;1.75;;;;;;;19.22;100.00;100748.75;5041792;28;20056;-91
2022/08/22 10:28:30;;;;;;;9.95;1.80;;;;;;;19.15;100.00;100745.69;5043310;28;20053;-91
2022/08/22 10:31:00;;;;;;;5.90;1.60;;;;;;;19.28;100.00;100748.31;5052187;28;20037;-91
2022/08/22 10:33:57;;;;;;;7.47;1.55;;;;;;;19.43;100.00;100746.28;5051215;28;20128;-91
2022/08/22 10:36:45;;;;;;;10.95;1.95;;;;;;;19.35;100.00;100723.00;5016241;28;20049;-91
2022/08/22 10:39:22;;;;;;;6.13;1.60;;;;;;;19.30;100.00;100741.06;5032453;28;20053;-92
2022/08/22 10:42:20;;;;;;;5.97;1.80;;;;;;;19.13;100.00;100736.16;5042293;28;20040;-91
2022/08/22 10:45:10;;;;;;;4.38;1.27;;;;;;;19.35;100.00;100740.69;5053109;28;20052;-92
2022/08/22 10:47:44;;;;;;;5.80;1.60;;;;;;;18.91;100.00;100713.84;5047809;28;20120;-92
2022/08/22 10:50:17;;;;;;;8.18;1.83;;;;;;;18.96;100.00;100711.72;5052465;28;20148;-92
2022/08/22 10:53:28;;;;;;;7.05;1.83;;;;;;;19.22;100.00;100727.50;5052027;28;20056;-92
2022/08/22 10:56:03;;;;;;;6.30;1.90;;;;;;;19.02;100.00;100712.22;5048966;28;20103;-91
2022/08/22 10:58:37;;;;;;;9.43;2.42;;;;;;;18.61;100.00;100727.50;5039236;28;20395;-91
2022/08/22 11:01:10;;;;;;;8.55;1.95;;;;;;;18.88;100.00;100719.38;5052288;28;20514;-92
2022/08/22 11:04:29;;;;;;;9.00;2.33;;;;;;;19.12;100.00;100732.66;5040440;28;20057;-91
2022/08/22 11:07:28;;;;;;;6.80;2.13;;;;;;;18.95;100.00;100733.03;5047759;28;20037;-92
2022/08/22 11:10:04;;;;;;;6.45;2.13;;;;;;;19.20;100.00;100715.31;4982928;28;20103;-92
2022/08/22 11:12:36;;;;;;;7.20;1.55;;;;;;;19.05;100.00;100704.00;5032583;28;20526;-91
2022/08/22 11:15:19;;;;;;;7.00;1.95;;;;;;;19.27;100.00;100709.44;5044347;28;20455;-89
2022/08/22 11:18:03;;;;;;;10.63;2.33;;;;;;;19.43;100.00;100729.53;5041074;28;20136;-89
2022/08/22 11:20:38;;;;;;;9.45;2.00;;;;;;;19.29;100.00;100711.97;5038395;28;20049;-90
2022/08/22 11:23:36;;;;;;;5.95;1.85;;;;;;;19.19;100.00;100738.34;5038584;28;20053;-89
2022/08/22 11:26:27;;;;;;;7.55;1.83;;;;;;;19.33;100.00;100718.75;5048024;28;20084;-90
2022/08/22 11:29:32;;;;;;;7.70;2.25;;;;;;;19.43;100.00;100725.06;5035361;28;20053;-88
2022/08/22 11:32:35;;;;;;;8.15;2.08;;;;;;;19.50;100.00;100707.69;5006098;28;20055;-89
2022/08/22 11:35:11;;;;;;;9.02;2.08;;;;;;;19.08;100.00;100719.72;5031922;28;20159;-89
2022/08/22 11:37:49;;;;;;;7.93;1.90;;;;;;;18.82;100.00;100665.91;5039581;28;20131;-88
2022/08/22 11:40:31;;;;;;;9.82;2.30;;;;;;;19.16;100.00;100714.69;5041515;28;20052;-89
2022/08/22 11:43:37;;;;;;;11.40;2.67;;;;;;;18.75;100.00;100707.91;5044925;28;20053;-92
2022/08/22 11:46:18;;;;;;;10.13;1.88;;;;;;;18.94;100.00;100703.00;5034097;28;20049;-90
2022/08/22 11:49:11;;;;;;;13.07;2.58;;;;;;;18.72;100.00;100709.00;5036600;28;20426;-89
2022/08/22 11:52:01;;;;;;;12.10;2.47;;;;;;;18.55;100.00;100706.72;5047118;28;20372;-89
2022/08/22 11:54:59;;;;;;;11.60;2.35;;;;;;;18.57;100.00;100702.13;5031327;28;20053;-91
2022/08/22 11:57:26;;;;;;;10.38;2.20;;;;;;;18.44;100.00;100706.63;5046337;28;20418;-90
2022/08/22 12:00:00;;;;;;;9.77;2.53;;;;;;;18.47;100.00;100707.28;5047195;28;20088;-90
2022/08/22 12:02:26;;;;;;;;;;;;;;;18.48;100.00;100711.59;5041085;28;20174;-90
2022/08/22 12:05:18;;;;;;;10.07;2.00;;;;;;;18.25;100.00;100699.13;5035602;28;19971;-91
2022/08/22 12:08:05;;;;;;;8.57;2.30;;;;;;;18.19;100.00;100719.81;5035192;28;20041;-91
2022/08/22 12:10:41;;;;;;;9.70;2.67;;;;;;;18.27;100.00;100698.06;5040248;28;20390;-90
2022/08/22 12:13:33;;;;;;;9.77;2.28;;;;;;;18.21;100.00;100696.69;5038733;28;20053;-90
2022/08/22 12:16:36;;;;;;;10.60;2.33;;;;;;;18.34;100.00;100702.00;5060072;28;20059;-90
2022/08/22 12:19:21;;;;;;;9.82;2.63;;;;;;;18.36;100.00;100710.69;5000902;28;20084;-89
2022/08/22 12:22:10;;;;;;;9.35;2.50;;;;;;;18.32;100.00;100703.88;5046668;28;20041;-90
2022/08/22 12:24:52;;;;;;;9.23;2.55;;;;;;;18.65;100.00;100704.25;5045965;28;20045;-92
2022/08/22 12:27:28;;;;;;;11.57;2.33;;;;;;;18.48;100.00;100708.94;5046580;28;20528;-93